createdAt,value
2018-07-19T00:00:39.663Z,0.00
2018-07-19T00:01:39.569Z,0.00
2018-07-19T00:02:41.614Z,0.00
2018-07-19T00:03:39.513Z,0.00
2018-07-19T00:04:44.391Z,0.00
2018-07-19T00:05:39.471Z,0.00
2018-07-19T00:06:39.492Z,0.00
2018-07-19T00:07:39.423Z,0.00
2018-07-19T00:08:39.519Z,0.00
2018-07-19T00:09:39.384Z,0.00
2018-07-19T00:10:39.424Z,0.00
2018-07-19T00:11:39.334Z,0.00
2018-07-19T00:12:39.332Z,0.00
2018-07-19T00:13:39.290Z,0.00
2018-07-19T00:14:40.372Z,0.00
2018-07-19T00:15:39.244Z,0.00
2018-07-19T00:16:39.252Z,0.00
2018-07-19T00:17:39.195Z,0.00
2018-07-19T00:18:39.273Z,0.00
2018-07-19T00:19:39.147Z,0.00
2018-07-19T00:20:39.125Z,0.00
2018-07-19T00:21:39.106Z,0.00
2018-07-19T00:22:39.196Z,0.00
2018-07-19T00:23:39.061Z,0.00
2018-07-19T00:24:40.132Z,0.00
2018-07-19T00:25:39.012Z,0.00
2018-07-19T00:26:41.064Z,0.00
2018-07-19T00:27:38.966Z,0.00
2018-07-19T00:28:40.048Z,0.00
2018-07-19T00:29:38.914Z,0.00
2018-07-19T00:30:43.863Z,0.00
2018-07-19T00:31:38.884Z,0.00
2018-07-19T00:32:38.912Z,0.00
2018-07-19T00:33:38.819Z,0.00
2018-07-19T00:34:38.920Z,0.00
2018-07-19T00:35:38.800Z,0.00
2018-07-19T00:36:38.838Z,0.00
2018-07-19T00:37:38.738Z,0.00
2018-07-19T00:38:38.741Z,0.00
2018-07-19T00:39:38.685Z,0.00
2018-07-19T00:40:38.754Z,0.00
2018-07-19T00:41:38.637Z,0.00
2018-07-19T00:42:38.670Z,0.00
2018-07-19T00:43:38.614Z,0.00
2018-07-19T00:44:38.684Z,0.00
2018-07-19T00:45:38.547Z,0.00
2018-07-19T00:46:38.589Z,0.00
2018-07-19T00:47:38.503Z,0.00
2018-07-19T00:48:38.515Z,0.00
2018-07-19T00:49:38.463Z,0.00
2018-07-19T00:50:38.512Z,0.00
2018-07-19T00:51:38.401Z,0.00
2018-07-19T00:52:38.422Z,0.00
2018-07-19T00:53:38.366Z,0.00
2018-07-19T00:54:38.448Z,0.00
2018-07-19T00:55:38.311Z,0.00
2018-07-19T00:56:38.359Z,0.00
2018-07-19T00:57:38.267Z,0.00
2018-07-19T00:58:38.362Z,0.00
2018-07-19T00:59:38.222Z,0.00
2018-07-19T01:00:38.274Z,0.00
2018-07-19T01:01:38.182Z,0.00
2018-07-19T01:02:38.196Z,0.00
2018-07-19T01:03:38.127Z,0.00
2018-07-19T01:04:38.202Z,0.00
2018-07-19T01:05:38.083Z,0.00
2018-07-19T01:06:38.113Z,0.00
2018-07-19T01:07:38.035Z,0.00
2018-07-19T01:08:38.120Z,0.00
2018-07-19T01:09:37.986Z,0.00
2018-07-19T01:10:38.049Z,0.00
2018-07-19T01:11:37.947Z,0.00
2018-07-19T01:12:37.953Z,0.00
2018-07-19T01:13:37.896Z,0.00
2018-07-19T01:14:37.966Z,0.00
2018-07-19T01:15:37.846Z,0.00
2018-07-19T01:16:37.875Z,0.00
2018-07-19T01:17:37.809Z,0.00
2018-07-19T01:18:37.887Z,0.00
2018-07-19T01:19:37.756Z,0.00
2018-07-19T01:20:37.801Z,0.00
2018-07-19T01:21:37.701Z,0.00
2018-07-19T01:22:37.706Z,0.00
2018-07-19T01:23:37.658Z,0.00
2018-07-19T01:24:37.730Z,0.00
2018-07-19T01:25:37.622Z,0.00
2018-07-19T01:26:37.633Z,0.00
2018-07-19T01:27:37.567Z,0.00
2018-07-19T01:28:37.648Z,0.00
2018-07-19T01:29:37.515Z,0.00
2018-07-19T01:30:37.557Z,0.00
2018-07-19T01:31:37.471Z,0.00
2018-07-19T01:32:37.572Z,0.00
2018-07-19T01:33:37.418Z,0.00
2018-07-19T01:34:37.483Z,0.00
2018-07-19T01:35:37.379Z,0.00
2018-07-19T01:36:37.393Z,0.00
2018-07-19T01:37:37.333Z,0.00
2018-07-19T01:38:37.422Z,0.00
2018-07-19T01:39:37.278Z,0.00
2018-07-19T01:40:37.345Z,0.00
2018-07-19T01:41:37.237Z,0.00
2018-07-19T01:42:37.227Z,0.00
2018-07-19T01:43:37.199Z,0.00
2018-07-19T01:44:37.249Z,0.00
2018-07-19T01:45:37.135Z,0.00
2018-07-19T01:46:37.153Z,0.00
2018-07-19T01:47:37.102Z,0.00
2018-07-19T01:48:37.179Z,0.00
2018-07-19T01:49:37.065Z,0.00
2018-07-19T01:50:37.113Z,0.00
2018-07-19T01:51:36.999Z,0.00
2018-07-19T01:52:37.030Z,0.00
2018-07-19T01:53:36.950Z,0.00
2018-07-19T01:54:37.053Z,0.00
2018-07-19T01:55:57.910Z,0.00
2018-07-19T01:56:36.893Z,0.00
2018-07-19T01:57:36.960Z,0.00
2018-07-19T01:58:36.832Z,0.00
2018-07-19T01:59:36.814Z,0.00
2018-07-19T02:00:37.801Z,0.00
2018-07-19T02:01:36.757Z,0.00
2018-07-19T02:02:36.747Z,0.00
2018-07-19T02:03:36.794Z,0.00
2018-07-19T02:04:36.688Z,0.00
2018-07-19T02:05:36.664Z,0.00
2018-07-19T02:06:36.717Z,0.00
2018-07-19T02:07:36.620Z,0.00
2018-07-19T02:08:36.594Z,0.00
2018-07-19T02:09:36.591Z,0.00
2018-07-19T02:10:36.546Z,0.00
2018-07-19T02:11:36.528Z,0.00
2018-07-19T02:12:36.600Z,0.00
2018-07-19T02:13:36.481Z,0.00
2018-07-19T02:14:36.459Z,0.00
2018-07-19T02:15:36.534Z,0.00
2018-07-19T02:16:36.411Z,0.00
2018-07-19T02:17:36.379Z,0.00
2018-07-19T02:18:36.357Z,0.00
2018-07-19T02:19:36.444Z,0.00
2018-07-19T02:20:36.313Z,0.00
2018-07-19T02:21:36.355Z,0.00
2018-07-19T02:22:36.265Z,0.00
2018-07-19T02:23:36.241Z,0.00
2018-07-19T02:24:36.261Z,0.00
2018-07-19T02:25:36.189Z,0.00
2018-07-19T02:26:36.175Z,0.00
2018-07-19T02:27:36.177Z,0.00
2018-07-19T02:28:36.119Z,0.00
2018-07-19T02:29:36.116Z,0.00
2018-07-19T02:30:36.112Z,0.00
2018-07-19T02:31:36.053Z,0.00
2018-07-19T02:32:36.033Z,0.00
2018-07-19T02:33:36.035Z,0.00
2018-07-19T02:34:37.053Z,0.00
2018-07-19T02:35:35.966Z,0.00
2018-07-19T02:36:36.039Z,0.00
2018-07-19T02:37:35.911Z,0.00
2018-07-19T02:38:35.880Z,0.00
2018-07-19T02:39:35.957Z,0.00
2018-07-19T02:40:35.842Z,0.00
2018-07-19T02:41:35.816Z,0.00
2018-07-19T02:42:35.785Z,0.00
2018-07-19T02:43:35.892Z,0.00
2018-07-19T02:44:35.751Z,0.00
2018-07-19T02:45:35.790Z,0.00
2018-07-19T02:46:35.693Z,0.00
2018-07-19T02:47:35.679Z,0.00
2018-07-19T02:48:35.710Z,0.00
2018-07-19T02:49:35.621Z,0.00
2018-07-19T02:50:35.605Z,0.00
2018-07-19T02:51:35.568Z,0.00
2018-07-19T02:52:35.638Z,0.00
2018-07-19T02:53:35.537Z,0.00
2018-07-19T02:54:35.546Z,4.00
2018-07-19T02:55:35.483Z,4.00
2018-07-19T02:56:35.463Z,0.00
2018-07-19T02:57:35.474Z,0.00
2018-07-19T02:58:35.408Z,4.00
2018-07-19T02:59:35.390Z,4.00
2018-07-19T03:00:36.412Z,0.00
2018-07-19T03:01:35.339Z,4.00
2018-07-19T03:02:35.318Z,8.00
2018-07-19T03:03:35.395Z,4.00
2018-07-19T03:04:35.266Z,4.00
2018-07-19T03:05:35.276Z,4.00
2018-07-19T03:06:35.246Z,8.00
2018-07-19T03:07:35.238Z,8.00
2018-07-19T03:08:35.175Z,12.00
2018-07-19T03:09:35.240Z,8.00
2018-07-19T03:10:35.122Z,12.00
2018-07-19T03:11:35.102Z,12.00
2018-07-19T03:12:35.095Z,16.00
2018-07-19T03:13:35.166Z,16.00
2018-07-19T03:14:35.029Z,20.00
2018-07-19T03:15:35.288Z,24.00
2018-07-19T03:16:34.984Z,24.00
2018-07-19T03:17:34.961Z,28.00
2018-07-19T03:18:34.935Z,28.00
2018-07-19T03:19:35.014Z,32.00
2018-07-19T03:20:34.886Z,36.00
2018-07-19T03:21:34.913Z,40.00
2018-07-19T03:22:34.841Z,44.00
2018-07-19T03:23:34.816Z,44.00
2018-07-19T03:24:34.831Z,52.00
2018-07-19T03:25:34.773Z,60.00
2018-07-19T03:26:34.758Z,64.00
2018-07-19T03:27:34.734Z,68.00
2018-07-19T03:28:34.753Z,72.00
2018-07-19T03:29:34.672Z,80.00
2018-07-19T03:30:34.678Z,84.00
2018-07-19T03:31:34.646Z,92.00
2018-07-19T03:32:34.600Z,100.00
2018-07-19T03:33:34.690Z,108.00
2018-07-19T03:34:34.560Z,112.00
2018-07-19T03:35:34.535Z,124.00
2018-07-19T03:36:34.504Z,132.00
2018-07-19T03:37:34.510Z,140.00
2018-07-19T03:38:34.455Z,148.00
2018-07-19T03:39:34.485Z,160.00
2018-07-19T03:40:34.423Z,172.00
2018-07-19T03:41:34.397Z,184.00
2018-07-19T03:42:34.408Z,196.00
2018-07-19T03:43:34.341Z,208.00
2018-07-19T03:44:34.328Z,220.00
2018-07-19T03:45:34.425Z,232.00
2018-07-19T03:46:34.266Z,248.00
2018-07-19T03:47:34.246Z,260.00
2018-07-19T03:48:34.221Z,276.00
2018-07-19T03:49:34.247Z,288.00
2018-07-19T03:50:34.296Z,308.00
2018-07-19T03:51:34.156Z,324.00
2018-07-19T03:52:34.166Z,336.00
2018-07-19T03:53:34.175Z,352.00
2018-07-19T03:54:34.082Z,376.00
2018-07-19T03:55:34.083Z,396.00
2018-07-19T03:56:34.033Z,408.00
2018-07-19T03:57:34.097Z,432.00
2018-07-19T03:58:34.006Z,452.00
2018-07-19T03:59:33.965Z,472.00
2018-07-19T04:00:33.938Z,492.00
2018-07-19T04:01:33.926Z,516.00
2018-07-19T04:02:33.929Z,540.00
2018-07-19T04:03:33.860Z,564.00
2018-07-19T04:04:33.905Z,580.00
2018-07-19T04:05:33.910Z,604.00
2018-07-19T04:06:33.797Z,624.00
2018-07-19T04:07:33.812Z,652.00
2018-07-19T04:08:33.829Z,672.00
2018-07-19T04:09:33.726Z,696.00
2018-07-19T04:10:33.745Z,720.00
2018-07-19T04:11:33.737Z,748.00
2018-07-19T04:12:33.652Z,772.00
2018-07-19T04:13:33.644Z,800.00
2018-07-19T04:14:33.661Z,824.00
2018-07-19T04:15:33.603Z,848.00
2018-07-19T04:16:33.577Z,868.00
2018-07-19T04:17:33.536Z,888.00
2018-07-19T04:18:33.592Z,916.00
2018-07-19T04:19:33.491Z,936.00
2018-07-19T04:20:33.464Z,964.00
2018-07-19T04:21:33.437Z,992.00
2018-07-19T04:22:33.508Z,1016.00
2018-07-19T04:23:33.411Z,1040.00
2018-07-19T04:24:33.371Z,1064.00
2018-07-19T04:25:33.426Z,1092.00
2018-07-19T04:26:33.326Z,1116.00
2018-07-19T04:27:33.335Z,1144.00
2018-07-19T04:28:33.280Z,1164.00
2018-07-19T04:29:33.254Z,1188.00
2018-07-19T04:30:33.223Z,1208.00
2018-07-19T04:31:33.264Z,1228.00
2018-07-19T04:32:33.174Z,1252.00
2018-07-19T04:33:33.171Z,1276.00
2018-07-19T04:34:33.148Z,1300.00
2018-07-19T04:35:33.119Z,1316.00
2018-07-19T04:36:33.083Z,1336.00
2018-07-19T04:37:33.110Z,1356.00
2018-07-19T04:38:33.105Z,1380.00
2018-07-19T04:39:33.011Z,1404.00
2018-07-19T04:40:33.017Z,1428.00
2018-07-19T04:41:33.022Z,1452.00
2018-07-19T04:42:32.963Z,1476.00
2018-07-19T04:43:32.933Z,1500.00
2018-07-19T04:44:32.896Z,1524.00
2018-07-19T04:45:32.880Z,1548.00
2018-07-19T04:46:32.936Z,1576.00
2018-07-19T04:47:32.921Z,1612.00
2018-07-19T04:48:32.824Z,1652.00
2018-07-19T04:49:33.863Z,1692.00
2018-07-19T04:50:32.838Z,1728.00
2018-07-19T04:51:32.721Z,1772.00
2018-07-19T04:52:32.749Z,1828.00
2018-07-19T04:53:33.780Z,1880.00
2018-07-19T04:54:32.679Z,1932.00
2018-07-19T04:55:32.629Z,1972.00
2018-07-19T04:56:32.608Z,2020.00
2018-07-19T04:57:32.597Z,2064.00
2018-07-19T04:58:32.579Z,2112.00
2018-07-19T04:59:32.538Z,2148.00
2018-07-19T05:00:32.593Z,2164.00
2018-07-19T05:01:32.485Z,2156.00
2018-07-19T05:02:32.465Z,2128.00
2018-07-19T05:03:32.445Z,2152.00
2018-07-19T05:04:32.525Z,2184.00
2018-07-19T05:05:32.395Z,2232.00
2018-07-19T05:06:32.438Z,2248.00
2018-07-19T05:07:32.355Z,2232.00
2018-07-19T05:08:32.328Z,2220.00
2018-07-19T05:09:32.342Z,2232.00
2018-07-19T05:10:32.278Z,2256.00
2018-07-19T05:11:32.265Z,2284.00
2018-07-19T05:12:32.238Z,2332.00
2018-07-19T05:13:32.275Z,2384.00
2018-07-19T05:14:32.284Z,2420.00
2018-07-19T05:15:32.161Z,2428.00
2018-07-19T05:16:32.188Z,2440.00
2018-07-19T05:17:32.198Z,2460.00
2018-07-19T05:18:32.098Z,2480.00
2018-07-19T05:19:32.107Z,2504.00
2018-07-19T05:20:32.122Z,2516.00
2018-07-19T05:21:32.032Z,2568.00
2018-07-19T05:22:32.033Z,2608.00
2018-07-19T05:23:32.041Z,2704.00
2018-07-19T05:24:31.960Z,2764.00
2018-07-19T05:25:31.951Z,2816.00
2018-07-19T05:26:31.958Z,2840.00
2018-07-19T05:27:31.911Z,2808.00
2018-07-19T05:28:31.965Z,2756.00
2018-07-19T05:29:31.876Z,2760.00
2018-07-19T05:30:31.814Z,2776.00
2018-07-19T05:31:31.903Z,2788.00
2018-07-19T05:32:31.810Z,2796.00
2018-07-19T05:33:31.735Z,2804.00
2018-07-19T05:34:31.827Z,2824.00
2018-07-19T05:35:31.715Z,2856.00
2018-07-19T05:36:31.670Z,2888.00
2018-07-19T05:37:31.723Z,2940.00
2018-07-19T05:38:31.739Z,3016.00
2018-07-19T05:39:31.598Z,3096.00
2018-07-19T05:40:31.647Z,3184.00
2018-07-19T05:41:31.651Z,3264.00
2018-07-19T05:42:31.579Z,3352.00
2018-07-19T05:43:31.564Z,3472.00
2018-07-19T05:44:31.573Z,3648.00
2018-07-19T05:45:31.443Z,3896.00
2018-07-19T05:46:32.507Z,4144.00
2018-07-19T05:47:31.409Z,4344.00
2018-07-19T05:48:31.491Z,4420.00
2018-07-19T05:49:31.353Z,4380.00
2018-07-19T05:50:31.364Z,4296.00
2018-07-19T05:51:31.317Z,4284.00
2018-07-19T05:52:31.353Z,4316.00
2018-07-19T05:53:31.329Z,4424.00
2018-07-19T05:54:31.461Z,4544.00
2018-07-19T05:55:31.238Z,4600.00
2018-07-19T05:56:31.245Z,4604.00
2018-07-19T05:57:31.396Z,4636.00
2018-07-19T05:58:31.332Z,4648.00
2018-07-19T05:59:31.680Z,4668.00
2018-07-19T06:00:31.135Z,4624.00
2018-07-19T06:01:31.211Z,4540.00
2018-07-19T06:02:31.089Z,4516.00
2018-07-19T06:03:31.030Z,4516.00
2018-07-19T06:04:31.089Z,4572.00
2018-07-19T06:05:30.999Z,4612.00
2018-07-19T06:06:30.954Z,4656.00
2018-07-19T06:07:31.014Z,4704.00
2018-07-19T06:08:31.019Z,4784.00
2018-07-19T06:09:30.943Z,4812.00
2018-07-19T06:10:30.927Z,4760.00
2018-07-19T06:11:30.945Z,4716.00
2018-07-19T06:12:30.802Z,4732.00
2018-07-19T06:13:30.849Z,4708.00
2018-07-19T06:14:30.879Z,4696.00
2018-07-19T06:15:30.746Z,4680.00
2018-07-19T06:16:30.763Z,4668.00
2018-07-19T06:17:30.752Z,4680.00
2018-07-19T06:18:30.668Z,4660.00
2018-07-19T06:19:30.700Z,4724.00
2018-07-19T06:20:32.658Z,4792.00
2018-07-19T06:21:30.600Z,4844.00
2018-07-19T06:22:30.727Z,4828.00
2018-07-19T06:23:32.678Z,4772.00
2018-07-19T06:24:30.536Z,4700.00
2018-07-19T06:25:30.546Z,4612.00
2018-07-19T06:26:30.550Z,4544.00
2018-07-19T06:27:30.486Z,4572.00
2018-07-19T06:28:31.489Z,4692.00
2018-07-19T06:29:30.470Z,4724.00
2018-07-19T06:30:30.402Z,4760.00
2018-07-19T06:31:30.524Z,4876.00
2018-07-19T06:32:32.430Z,5080.00
2018-07-19T06:33:30.318Z,5168.00
2018-07-19T06:34:30.371Z,5272.00
2018-07-19T06:35:30.379Z,5464.00
2018-07-19T06:36:30.241Z,5484.00
2018-07-19T06:37:30.292Z,5560.00
2018-07-19T06:38:30.300Z,5776.00
2018-07-19T06:39:30.179Z,5504.00
2018-07-19T06:40:30.234Z,5184.00
2018-07-19T06:41:30.229Z,4924.00
2018-07-19T06:42:30.105Z,4800.00
2018-07-19T06:43:31.159Z,4560.00
2018-07-19T06:44:30.150Z,4504.00
2018-07-19T06:45:30.046Z,4996.00
2018-07-19T06:46:30.060Z,4628.00
2018-07-19T06:47:30.068Z,4864.00
2018-07-19T06:48:29.979Z,5060.00
2018-07-19T06:49:30.027Z,5208.00
2018-07-19T06:50:29.985Z,5192.00
2018-07-19T06:51:29.889Z,5232.00
2018-07-19T06:52:29.872Z,5312.00
2018-07-19T06:53:29.848Z,5392.00
2018-07-19T06:54:29.829Z,5480.00
2018-07-19T06:55:29.932Z,5464.00
2018-07-19T06:56:29.830Z,5516.00
2018-07-19T06:57:29.816Z,5568.00
2018-07-19T06:58:29.833Z,5584.00
2018-07-19T06:59:29.746Z,5656.00
2018-07-19T07:00:29.711Z,5660.00
2018-07-19T07:01:29.771Z,5800.00
2018-07-19T07:02:29.659Z,5912.00
2018-07-19T07:03:29.635Z,5848.00
2018-07-19T07:04:30.637Z,5980.00
2018-07-19T07:05:29.609Z,6016.00
2018-07-19T07:06:29.551Z,6260.00
2018-07-19T07:07:30.549Z,6372.00
2018-07-19T07:08:29.542Z,6500.00
2018-07-19T07:09:29.495Z,6480.00
2018-07-19T07:10:29.546Z,6432.00
2018-07-19T07:11:29.454Z,6432.00
2018-07-19T07:12:29.417Z,6380.00
2018-07-19T07:13:29.468Z,6296.00
2018-07-19T07:14:29.469Z,6208.00
2018-07-19T07:15:29.333Z,6212.00
2018-07-19T07:16:29.386Z,6204.00
2018-07-19T07:17:29.417Z,6272.00
2018-07-19T07:18:29.265Z,6452.00
2018-07-19T07:19:29.301Z,6516.00
2018-07-19T07:20:29.221Z,6640.00
2018-07-19T07:21:29.208Z,6784.00
2018-07-19T07:22:29.229Z,6896.00
2018-07-19T07:23:29.150Z,6960.00
2018-07-19T07:24:29.142Z,7000.00
2018-07-19T07:25:29.098Z,6908.00
2018-07-19T07:26:29.090Z,6776.00
2018-07-19T07:27:29.063Z,6648.00
2018-07-19T07:28:29.032Z,6556.00
2018-07-19T07:29:29.032Z,6512.00
2018-07-19T07:30:28.988Z,6532.00
2018-07-19T07:31:28.967Z,6588.00
2018-07-19T07:32:28.942Z,6660.00
2018-07-19T07:33:28.908Z,6680.00
2018-07-19T07:34:28.913Z,6528.00
2018-07-19T07:35:28.870Z,6336.00
2018-07-19T07:36:28.852Z,6260.00
2018-07-19T07:37:28.917Z,6284.00
2018-07-19T07:38:28.791Z,6396.00
2018-07-19T07:39:28.824Z,6488.00
2018-07-19T07:40:28.749Z,6576.00
2018-07-19T07:41:28.719Z,6644.00
2018-07-19T07:42:28.712Z,6696.00
2018-07-19T07:43:28.747Z,6680.00
2018-07-19T07:44:28.677Z,6752.00
2018-07-19T07:45:28.683Z,6656.00
2018-07-19T07:46:28.607Z,6560.00
2018-07-19T07:47:28.590Z,6696.00
2018-07-19T07:48:28.564Z,6808.00
2018-07-19T07:49:28.592Z,6856.00
2018-07-19T07:50:28.530Z,6776.00
2018-07-19T07:51:28.603Z,6892.00
2018-07-19T07:52:28.459Z,6916.00
2018-07-19T07:53:28.437Z,6892.00
2018-07-19T07:54:28.412Z,6788.00
2018-07-19T07:55:28.510Z,6660.00
2018-07-19T07:56:28.390Z,6680.00
2018-07-19T07:57:29.442Z,6724.00
2018-07-19T07:58:28.328Z,6852.00
2018-07-19T07:59:28.306Z,7132.00
2018-07-19T08:00:28.282Z,7384.00
2018-07-19T08:01:28.341Z,7496.00
2018-07-19T08:02:28.244Z,7536.00
2018-07-19T08:03:28.254Z,7576.00
2018-07-19T08:04:28.185Z,7452.00
2018-07-19T08:05:28.149Z,7332.00
2018-07-19T08:06:28.133Z,7248.00
2018-07-19T08:07:28.182Z,7108.00
2018-07-19T08:08:28.098Z,7080.00
2018-07-19T08:09:30.149Z,7100.00
2018-07-19T08:10:28.033Z,7348.00
2018-07-19T08:11:28.015Z,7572.00
2018-07-19T08:12:27.986Z,7684.00
2018-07-19T08:13:29.038Z,7728.00
2018-07-19T08:14:27.954Z,7624.00
2018-07-19T08:15:28.027Z,7416.00
2018-07-19T08:16:27.891Z,7208.00
2018-07-19T08:17:27.888Z,7044.00
2018-07-19T08:18:27.852Z,6944.00
2018-07-19T08:19:27.860Z,6948.00
2018-07-19T08:20:27.823Z,7064.00
2018-07-19T08:21:27.867Z,7184.00
2018-07-19T08:22:27.768Z,7376.00
2018-07-19T08:23:27.740Z,7624.00
2018-07-19T08:24:27.719Z,7884.00
2018-07-19T08:25:27.906Z,8084.00
2018-07-19T08:26:27.692Z,8216.00
2018-07-19T08:27:28.721Z,8356.00
2018-07-19T08:28:27.609Z,8368.00
2018-07-19T08:29:27.593Z,8252.00
2018-07-19T08:30:27.562Z,8076.00
2018-07-19T08:31:27.625Z,7852.00
2018-07-19T08:32:27.551Z,7684.00
2018-07-19T08:33:27.540Z,7672.00
2018-07-19T08:34:27.483Z,7472.00
2018-07-19T08:35:27.571Z,7252.00
2018-07-19T08:36:27.426Z,7268.00
2018-07-19T08:37:27.473Z,7096.00
2018-07-19T08:38:27.385Z,7012.00
2018-07-19T08:39:27.361Z,6984.00
2018-07-19T08:40:27.495Z,7080.00
2018-07-19T08:41:27.308Z,7232.00
2018-07-19T08:42:27.566Z,7480.00
2018-07-19T08:43:27.264Z,7728.00
2018-07-19T08:44:27.256Z,7844.00
2018-07-19T08:45:27.218Z,7892.00
2018-07-19T08:46:27.278Z,7844.00
2018-07-19T08:47:27.156Z,7812.00
2018-07-19T08:48:27.181Z,7800.00
2018-07-19T08:49:27.116Z,7788.00
2018-07-19T08:50:28.118Z,7636.00
2018-07-19T08:51:27.064Z,7592.00
2018-07-19T08:52:27.127Z,7672.00
2018-07-19T08:53:27.014Z,7916.00
2018-07-19T08:54:26.986Z,7964.00
2018-07-19T08:55:27.025Z,7868.00
2018-07-19T08:56:26.944Z,7716.00
2018-07-19T08:57:27.961Z,7588.00
2018-07-19T08:58:26.904Z,7372.00
2018-07-19T08:59:26.945Z,7264.00
2018-07-19T09:00:26.848Z,7012.00
2018-07-19T09:01:26.869Z,6832.00
2018-07-19T09:02:26.833Z,6572.00
2018-07-19T09:03:26.886Z,6348.00
2018-07-19T09:04:26.747Z,6136.00
2018-07-19T09:05:26.789Z,6032.00
2018-07-19T09:06:26.703Z,5704.00
2018-07-19T09:07:26.811Z,5628.00
2018-07-19T09:08:26.647Z,5500.00
2018-07-19T09:09:26.651Z,5396.00
2018-07-19T09:10:26.631Z,5308.00
2018-07-19T09:11:26.623Z,5372.00
2018-07-19T09:12:26.570Z,5464.00
2018-07-19T09:13:26.637Z,5408.00
2018-07-19T09:14:26.515Z,5444.00
2018-07-19T09:15:26.547Z,5648.00
2018-07-19T09:16:26.462Z,5724.00
2018-07-19T09:17:26.463Z,5604.00
2018-07-19T09:18:26.409Z,5412.00
2018-07-19T09:19:26.493Z,5132.00
2018-07-19T09:20:26.374Z,4824.00
2018-07-19T09:21:30.997Z,4576.00
2018-07-19T09:22:26.326Z,4388.00
2018-07-19T09:23:27.317Z,4244.00
2018-07-19T09:24:26.274Z,4144.00
2018-07-19T09:25:27.332Z,4096.00
2018-07-19T09:26:26.250Z,4020.00
2018-07-19T09:27:26.333Z,3932.00
2018-07-19T09:28:26.187Z,3872.00
2018-07-19T09:29:26.232Z,3812.00
2018-07-19T09:30:26.139Z,3800.00
2018-07-19T09:31:26.170Z,3784.00
2018-07-19T09:32:26.115Z,3780.00
2018-07-19T09:33:26.162Z,3804.00
2018-07-19T09:34:26.065Z,3900.00
2018-07-19T09:36:11.959Z,3900.00
2018-07-19T09:37:11.947Z,3936.00
2018-07-19T09:38:11.964Z,3960.00
2018-07-19T09:39:11.839Z,3968.00
2018-07-19T09:40:11.872Z,3968.00
2018-07-19T09:41:11.793Z,3964.00
2018-07-19T09:42:11.888Z,3972.00
2018-07-19T09:43:11.749Z,3996.00
2018-07-19T09:44:11.745Z,4036.00
2018-07-19T09:45:11.696Z,4080.00
2018-07-19T09:46:11.753Z,4136.00
2018-07-19T09:47:11.654Z,4228.00
2018-07-19T09:48:11.644Z,4208.00
2018-07-19T09:49:12.756Z,4160.00
2018-07-19T09:50:11.588Z,4040.00
2018-07-19T09:51:11.698Z,3940.00
2018-07-19T09:52:11.541Z,3876.00
2018-07-19T09:53:11.614Z,3848.00
2018-07-19T09:54:11.509Z,3836.00
2018-07-19T09:55:12.563Z,3808.00
2018-07-19T09:56:11.459Z,3780.00
2018-07-19T09:57:11.541Z,3776.00
2018-07-19T09:58:11.402Z,3820.00
2018-07-19T09:59:11.438Z,3896.00
2018-07-19T10:00:11.348Z,3960.00
2018-07-19T10:01:11.464Z,3936.00
2018-07-19T10:02:11.301Z,3856.00
2018-07-19T10:03:11.366Z,3772.00
2018-07-19T10:04:11.261Z,3712.00
2018-07-19T10:05:11.294Z,3708.00
2018-07-19T10:06:11.217Z,3700.00
2018-07-19T10:07:11.294Z,3704.00
2018-07-19T10:08:11.171Z,3708.00
2018-07-19T10:09:11.205Z,3708.00
2018-07-19T10:10:11.133Z,3712.00
2018-07-19T10:11:11.220Z,3684.00
2018-07-19T10:12:11.084Z,3688.00
2018-07-19T10:13:11.131Z,3664.00
2018-07-19T10:14:11.035Z,3636.00
2018-07-19T10:15:11.145Z,3636.00
2018-07-19T10:16:10.999Z,3592.00
2018-07-19T10:17:10.967Z,3580.00
2018-07-19T10:18:10.936Z,3616.00
2018-07-19T10:19:11.075Z,3676.00
2018-07-19T10:20:10.896Z,3796.00
2018-07-19T10:21:10.988Z,3944.00
2018-07-19T10:22:10.858Z,4008.00
2018-07-19T10:23:10.890Z,3972.00
2018-07-19T10:24:10.810Z,3912.00
2018-07-19T10:25:11.927Z,3864.00
2018-07-19T10:26:10.768Z,3876.00
2018-07-19T10:27:11.854Z,4068.00
2018-07-19T10:28:10.716Z,4276.00
2018-07-19T10:29:11.751Z,4320.00
2018-07-19T10:30:10.674Z,4240.00
2018-07-19T10:31:10.763Z,4128.00
2018-07-19T10:32:10.673Z,4048.00
2018-07-19T10:33:10.753Z,4032.00
2018-07-19T10:34:10.629Z,4000.00
2018-07-19T10:35:10.661Z,4048.00
2018-07-19T10:36:10.540Z,4188.00
2018-07-19T10:37:10.575Z,4296.00
2018-07-19T10:38:10.490Z,4360.00
2018-07-19T10:39:10.503Z,4472.00
2018-07-19T10:40:10.444Z,4640.00
2018-07-19T10:41:10.486Z,4780.00
2018-07-19T10:42:10.398Z,4836.00
2018-07-19T10:43:10.555Z,4884.00
2018-07-19T10:44:10.367Z,4888.00
2018-07-19T10:45:10.419Z,4436.00
2018-07-19T10:46:10.308Z,4492.00
2018-07-19T10:47:11.346Z,4552.00
2018-07-19T10:48:10.263Z,4560.00
2018-07-19T10:49:10.338Z,4604.00
2018-07-19T10:50:10.215Z,4820.00
2018-07-19T10:51:10.247Z,5036.00
2018-07-19T10:52:10.178Z,5744.00
2018-07-19T10:53:14.770Z,6104.00
2018-07-19T10:54:10.125Z,6340.00
2018-07-19T10:55:10.172Z,6476.00
2018-07-19T10:56:10.070Z,6712.00
2018-07-19T10:57:10.182Z,6948.00
2018-07-19T10:58:10.038Z,7028.00
2018-07-19T10:59:11.118Z,7056.00
2018-07-19T11:00:09.999Z,7040.00
2018-07-19T11:01:11.037Z,6972.00
2018-07-19T11:02:09.935Z,6960.00
2018-07-19T11:03:10.025Z,6536.00
2018-07-19T11:04:09.896Z,6504.00
2018-07-19T11:05:09.928Z,6416.00
2018-07-19T11:06:09.846Z,6408.00
2018-07-19T11:07:09.964Z,6248.00
2018-07-19T11:08:09.812Z,6376.00
2018-07-19T11:09:10.909Z,6204.00
2018-07-19T11:10:09.831Z,6076.00
2018-07-19T11:11:09.878Z,5752.00
2018-07-19T11:12:09.724Z,5808.00
2018-07-19T11:13:09.708Z,6024.00
2018-07-19T11:14:09.811Z,6132.00
2018-07-19T11:15:09.647Z,6668.00
2018-07-19T11:16:09.710Z,6760.00
2018-07-19T11:17:09.608Z,6884.00
2018-07-19T11:18:10.748Z,6984.00
2018-07-19T11:19:09.571Z,6956.00
2018-07-19T11:20:09.634Z,6972.00
2018-07-19T11:21:09.519Z,7172.00
2018-07-19T11:22:10.573Z,7084.00
2018-07-19T11:23:09.476Z,7192.00
2018-07-19T11:24:09.560Z,6964.00
2018-07-19T11:25:09.422Z,6884.00
2018-07-19T11:26:09.411Z,6732.00
2018-07-19T11:27:09.386Z,6708.00
2018-07-19T11:28:09.481Z,7356.00
2018-07-19T11:29:09.329Z,7148.00
2018-07-19T11:30:09.392Z,7112.00
2018-07-19T11:31:09.291Z,7632.00
2018-07-19T11:32:09.416Z,7144.00
2018-07-19T11:33:09.255Z,7224.00
2018-07-19T11:34:09.320Z,6672.00
2018-07-19T11:35:09.206Z,6648.00
2018-07-19T11:36:09.311Z,6492.00
2018-07-19T11:37:09.162Z,5936.00
2018-07-19T11:38:09.218Z,6124.00
2018-07-19T11:39:09.123Z,6064.00
2018-07-19T11:40:09.234Z,5920.00
2018-07-19T11:41:09.064Z,5744.00
2018-07-19T11:42:09.049Z,5548.00
2018-07-19T11:43:09.024Z,5404.00
2018-07-19T11:44:09.060Z,5336.00
2018-07-19T11:45:08.985Z,5252.00
2018-07-19T11:46:08.970Z,5056.00
2018-07-19T11:47:08.957Z,4892.00
2018-07-19T11:48:08.979Z,4860.00
2018-07-19T11:49:08.886Z,4672.00
2018-07-19T11:50:09.006Z,4748.00
2018-07-19T11:51:08.843Z,4732.00
2018-07-19T11:52:09.011Z,4600.00
2018-07-19T11:53:08.804Z,4612.00
2018-07-19T11:54:08.914Z,4660.00
2018-07-19T11:55:08.766Z,4640.00
2018-07-19T11:56:13.847Z,4628.00
2018-07-19T11:57:08.723Z,4676.00
2018-07-19T11:58:08.832Z,4560.00
2018-07-19T11:59:08.669Z,4388.00
2018-07-19T12:00:08.749Z,4680.00
2018-07-19T12:01:08.619Z,4804.00
2018-07-19T12:02:09.684Z,5020.00
2018-07-19T12:03:08.587Z,5316.00
2018-07-19T12:04:08.673Z,5456.00
2018-07-19T12:05:08.543Z,5736.00
2018-07-19T12:06:08.585Z,5844.00
2018-07-19T12:07:08.498Z,5568.00
2018-07-19T12:08:08.592Z,5408.00
2018-07-19T12:09:08.459Z,5296.00
2018-07-19T12:10:09.547Z,5372.00
2018-07-19T12:11:08.398Z,5564.00
2018-07-19T12:12:08.695Z,5780.00
2018-07-19T12:13:08.357Z,5820.00
2018-07-19T12:14:08.335Z,5840.00
2018-07-19T12:15:08.315Z,5828.00
2018-07-19T12:16:08.358Z,5920.00
2018-07-19T12:17:08.287Z,5984.00
2018-07-19T12:18:10.459Z,6056.00
2018-07-19T12:19:08.224Z,6048.00
2018-07-19T12:20:08.200Z,5936.00
2018-07-19T12:21:08.302Z,5708.00
2018-07-19T12:22:08.159Z,5684.00
2018-07-19T12:23:10.242Z,5772.00
2018-07-19T12:24:08.121Z,5844.00
2018-07-19T12:25:08.198Z,5912.00
2018-07-19T12:26:08.085Z,5768.00